sensor_id;sensor_type;location;lat;lon;timestamp;pressure;altitude;pressure_sealevel;temperature;humidity
62800;BME280;48842;51.046;13.796;2023-04-19T00:00:31;101195.16;;;12.12;70.81
62800;BME280;48842;51.046;13.796;2023-04-19T00:02:56;101189.00;;;12.08;70.91
62800;BME280;48842;51.046;13.796;2023-04-19T00:05:22;101185.50;;;12.08;71.19
62800;BME280;48842;51.046;13.796;2023-04-19T00:07:49;101183.72;;;12.07;71.22
62800;BME280;48842;51.046;13.796;2023-04-19T00:10:15;101179.34;;;12.07;71.08
62800;BME280;48842;51.046;13.796;2023-04-19T00:12:40;101179.31;;;12.05;71.38
62800;BME280;48842;51.046;13.796;2023-04-19T00:15:06;101177.53;;;12.01;71.43
62800;BME280;48842;51.046;13.796;2023-04-19T00:17:32;101181.03;;;12.00;71.15
62800;BME280;48842;51.046;13.796;2023-04-19T00:19:57;101177.53;;;12.01;70.93
62800;BME280;48842;51.046;13.796;2023-04-19T00:22:22;101173.19;;;12.03;70.90
62800;BME280;48842;51.046;13.796;2023-04-19T00:24:48;101173.16;;;12.00;70.71
62800;BME280;48842;51.046;13.796;2023-04-19T00:27:13;101167.88;;;11.97;70.50
62800;BME280;48842;51.046;13.796;2023-04-19T00:29:38;101166.94;;;11.94;70.84
62800;BME280;48842;51.046;13.796;2023-04-19T00:32:03;101169.50;;;11.92;70.68
62800;BME280;48842;51.046;13.796;2023-04-19T00:34:30;101168.63;;;11.90;70.13
62800;BME280;48842;51.046;13.796;2023-04-19T00:36:55;101165.09;;;11.88;70.22
62800;BME280;48842;51.046;13.796;2023-04-19T00:39:20;101165.94;;;11.87;69.81
62800;BME280;48842;51.046;13.796;2023-04-19T00:41:46;101167.66;;;11.85;70.45
62800;BME280;48842;51.046;13.796;2023-04-19T00:44:11;101166.78;;;11.83;69.87
62800;BME280;48842;51.046;13.796;2023-04-19T00:46:36;101158.00;;;11.81;69.99
62800;BME280;48842;51.046;13.796;2023-04-19T00:49:02;101152.72;;;11.78;69.94
62800;BME280;48842;51.046;13.796;2023-04-19T00:51:27;101150.91;;;11.75;69.87
62800;BME280;48842;51.046;13.796;2023-04-19T00:53:53;101159.66;;;11.73;69.54
62800;BME280;48842;51.046;13.796;2023-04-19T00:56:20;101154.41;;;11.73;69.58
62800;BME280;48842;51.046;13.796;2023-04-19T00:58:46;101151.78;;;11.73;69.37
62800;BME280;48842;51.046;13.796;2023-04-19T01:01:12;101141.28;;;11.71;69.82
62800;BME280;48842;51.046;13.796;2023-04-19T01:03:37;101142.13;;;11.72;69.31
62800;BME280;48842;51.046;13.796;2023-04-19T01:06:02;101150.88;;;11.70;69.04
62800;BME280;48842;51.046;13.796;2023-04-19T01:08:27;101156.94;;;11.68;68.99
62800;BME280;48842;51.046;13.796;2023-04-19T01:10:53;101149.06;;;11.66;69.09
62800;BME280;48842;51.046;13.796;2023-04-19T01:13:18;101149.91;;;11.62;69.04
62800;BME280;48842;51.046;13.796;2023-04-19T01:15:43;101141.13;;;11.60;68.23
62800;BME280;48842;51.046;13.796;2023-04-19T01:18:08;101145.47;;;11.58;68.79
62800;BME280;48842;51.046;13.796;2023-04-19T01:20:34;101144.53;;;11.55;68.36
62800;BME280;48842;51.046;13.796;2023-04-19T01:22:59;101137.50;;;11.52;68.24
62800;BME280;48842;51.046;13.796;2023-04-19T01:25:24;101133.09;;;11.48;68.20
62800;BME280;48842;51.046;13.796;2023-04-19T01:27:50;101137.44;;;11.46;67.93
62800;BME280;48842;51.046;13.796;2023-04-19T01:30:15;101140.88;;;11.43;67.66
62800;BME280;48842;51.046;13.796;2023-04-19T01:32:40;101141.75;;;11.42;67.80
62800;BME280;48842;51.046;13.796;2023-04-19T01:35:06;101127.75;;;11.42;67.85
62800;BME280;48842;51.046;13.796;2023-04-19T01:37:34;101133.91;;;11.42;67.85
62800;BME280;48842;51.046;13.796;2023-04-19T01:39:59;101123.44;;;11.44;68.24
62800;BME280;48842;51.046;13.796;2023-04-19T01:42:25;101128.66;;;11.44;67.98
62800;BME280;48842;51.046;13.796;2023-04-19T01:44:51;101127.75;;;11.42;67.34
62800;BME280;48842;51.046;13.796;2023-04-19T01:47:16;101127.69;;;11.37;67.67
62800;BME280;48842;51.046;13.796;2023-04-19T01:49:41;101125.00;;;11.32;67.91
62800;BME280;48842;51.046;13.796;2023-04-19T01:52:06;101122.38;;;11.31;67.51
62800;BME280;48842;51.046;13.796;2023-04-19T01:54:32;101121.50;;;11.30;67.16
62800;BME280;48842;51.046;13.796;2023-04-19T01:56:57;101126.72;;;11.29;67.23
62800;BME280;48842;51.046;13.796;2023-04-19T01:59:22;101123.19;;;11.27;67.46
62800;BME280;48842;51.046;13.796;2023-04-19T02:01:47;101124.97;;;11.28;67.22
62800;BME280;48842;51.046;13.796;2023-04-19T02:04:13;101124.09;;;11.29;66.85
62800;BME280;48842;51.046;13.796;2023-04-19T02:06:38;101124.09;;;11.27;67.27
62800;BME280;48842;51.046;13.796;2023-04-19T02:09:03;101125.81;;;11.28;67.31
62800;BME280;48842;51.046;13.796;2023-04-19T02:11:28;101117.09;;;11.29;66.91
62800;BME280;48842;51.046;13.796;2023-04-19T02:13:54;101118.88;;;11.30;67.38
62800;BME280;48842;51.046;13.796;2023-04-19T02:16:19;101119.72;;;11.29;66.69
62800;BME280;48842;51.046;13.796;2023-04-19T02:18:44;101118.84;;;11.27;67.10
62800;BME280;48842;51.046;13.796;2023-04-19T02:21:10;101115.28;;;11.25;67.07
62800;BME280;48842;51.046;13.796;2023-04-19T02:23:36;101120.53;;;11.24;66.46
62800;BME280;48842;51.046;13.796;2023-04-19T02:26:01;101121.34;;;11.21;66.17
62800;BME280;48842;51.046;13.796;2023-04-19T02:28:28;101116.06;;;11.18;67.00
62800;BME280;48842;51.046;13.796;2023-04-19T02:30:53;101117.81;;;11.16;66.87
62800;BME280;48842;51.046;13.796;2023-04-19T02:33:21;101111.63;;;11.14;66.73
62800;BME280;48842;51.046;13.796;2023-04-19T02:35:46;101109.00;;;11.14;66.33
62800;BME280;48842;51.046;13.796;2023-04-19T02:38:11;101116.88;;;11.14;67.00
62800;BME280;48842;51.046;13.796;2023-04-19T02:40:36;101109.94;;;11.16;66.76
62800;BME280;48842;51.046;13.796;2023-04-19T02:43:02;101108.19;;;11.18;66.88
62800;BME280;48842;51.046;13.796;2023-04-19T02:45:28;101111.72;;;11.17;66.47
62800;BME280;48842;51.046;13.796;2023-04-19T02:47:53;101106.47;;;11.17;66.80
62800;BME280;48842;51.046;13.796;2023-04-19T02:50:19;101110.78;;;11.15;66.33
62800;BME280;48842;51.046;13.796;2023-04-19T02:52:44;101101.09;;;11.11;66.60
62800;BME280;48842;51.046;13.796;2023-04-19T02:55:09;101101.06;;;11.08;66.35
62800;BME280;48842;51.046;13.796;2023-04-19T02:57:34;101108.03;;;11.06;66.52
62800;BME280;48842;51.046;13.796;2023-04-19T03:00:00;101100.03;;;10.98;66.21
62800;BME280;48842;51.046;13.796;2023-04-19T03:02:25;101101.75;;;10.94;66.35
62800;BME280;48842;51.046;13.796;2023-04-19T03:04:50;101094.69;;;10.90;66.38
62800;BME280;48842;51.046;13.796;2023-04-19T03:07:17;101099.91;;;10.87;66.50
62800;BME280;48842;51.046;13.796;2023-04-19T03:09:42;101087.59;;;10.83;66.55
62800;BME280;48842;51.046;13.796;2023-04-19T03:12:07;101088.47;;;10.82;66.66
62800;BME280;48842;51.046;13.796;2023-04-19T03:14:33;101091.13;;;10.83;66.41
62800;BME280;48842;51.046;13.796;2023-04-19T03:16:58;101084.97;;;10.83;66.44
62800;BME280;48842;51.046;13.796;2023-04-19T03:19:24;101081.47;;;10.81;66.62
62800;BME280;48842;51.046;13.796;2023-04-19T03:21:49;101077.06;;;10.80;66.50
62800;BME280;48842;51.046;13.796;2023-04-19T03:24:15;101081.41;;;10.76;66.38
62800;BME280;48842;51.046;13.796;2023-04-19T03:26:40;101068.19;;;10.72;66.27
62800;BME280;48842;51.046;13.796;2023-04-19T03:29:05;101073.41;;;10.69;66.55
62800;BME280;48842;51.046;13.796;2023-04-19T03:31:30;101062.88;;;10.65;66.54
62800;BME280;48842;51.046;13.796;2023-04-19T03:33:56;101067.25;;;10.67;66.67
62800;BME280;48842;51.046;13.796;2023-04-19T03:36:21;101063.81;;;10.68;66.64
62800;BME280;48842;51.046;13.796;2023-04-19T03:38:46;101056.78;;;10.67;66.72
62800;BME280;48842;51.046;13.796;2023-04-19T03:41:23;101061.16;;;10.66;66.62
62800;BME280;48842;51.046;13.796;2023-04-19T03:43:49;101065.47;;;10.64;66.77
62800;BME280;48842;51.046;13.796;2023-04-19T03:46:14;101061.94;;;10.60;66.51
62800;BME280;48842;51.046;13.796;2023-04-19T03:48:39;101052.25;;;10.56;66.46
62800;BME280;48842;51.046;13.796;2023-04-19T03:51:04;101055.69;;;10.52;66.57
62800;BME280;48842;51.046;13.796;2023-04-19T03:53:30;101060.03;;;10.50;66.40
62800;BME280;48842;51.046;13.796;2023-04-19T03:55:55;101048.59;;;10.46;66.69
62800;BME280;48842;51.046;13.796;2023-04-19T03:58:21;101053.78;;;10.42;66.41
62800;BME280;48842;51.046;13.796;2023-04-19T04:00:46;101051.16;;;10.42;66.53
62800;BME280;48842;51.046;13.796;2023-04-19T04:03:11;101041.56;;;10.42;66.47
62800;BME280;48842;51.046;13.796;2023-04-19T04:05:37;101051.16;;;10.42;66.40
62800;BME280;48842;51.046;13.796;2023-04-19T04:08:02;101045.91;;;10.42;66.64
62800;BME280;48842;51.046;13.796;2023-04-19T04:10:27;101049.44;;;10.44;66.92
62800;BME280;48842;51.046;13.796;2023-04-19T04:12:53;101050.34;;;10.46;66.67
62800;BME280;48842;51.046;13.796;2023-04-19T04:15:18;101055.63;;;10.47;66.43
62800;BME280;48842;51.046;13.796;2023-04-19T04:17:43;101055.59;;;10.46;66.01
62800;BME280;48842;51.046;13.796;2023-04-19T04:20:09;101064.25;;;10.42;65.82
62800;BME280;48842;51.046;13.796;2023-04-19T04:22:39;101062.44;;;10.38;65.94
62800;BME280;48842;51.046;13.796;2023-04-19T04:25:06;101064.16;;;10.36;65.69
62800;BME280;48842;51.046;13.796;2023-04-19T04:27:31;101065.78;;;10.32;65.09
62800;BME280;48842;51.046;13.796;2023-04-19T04:29:57;101068.34;;;10.27;64.98
62800;BME280;48842;51.046;13.796;2023-04-19T04:32:22;101062.22;;;10.25;65.04
62800;BME280;48842;51.046;13.796;2023-04-19T04:34:47;101063.91;;;10.23;64.79
62800;BME280;48842;51.046;13.796;2023-04-19T04:37:13;101061.28;;;10.23;64.47
62800;BME280;48842;51.046;13.796;2023-04-19T04:39:38;101060.41;;;10.23;64.44
62800;BME280;48842;51.046;13.796;2023-04-19T04:42:05;101063.00;;;10.21;64.10
62800;BME280;48842;51.046;13.796;2023-04-19T04:44:33;101064.72;;;10.19;63.60
62800;BME280;48842;51.046;13.796;2023-04-19T04:46:58;101060.38;;;10.20;63.99
62800;BME280;48842;51.046;13.796;2023-04-19T04:49:24;101058.56;;;10.17;63.58
62800;BME280;48842;51.046;13.796;2023-04-19T04:51:49;101059.41;;;10.16;63.11
62800;BME280;48842;51.046;13.796;2023-04-19T04:54:14;101064.66;;;10.16;63.08
62800;BME280;48842;51.046;13.796;2023-04-19T04:56:40;101053.34;;;10.17;62.68
62800;BME280;48842;51.046;13.796;2023-04-19T04:59:05;101044.56;;;10.13;61.37
62800;BME280;48842;51.046;13.796;2023-04-19T05:01:31;101045.34;;;10.09;61.55
62800;BME280;48842;51.046;13.796;2023-04-19T05:03:56;101061.03;;;10.08;61.35
62800;BME280;48842;51.046;13.796;2023-04-19T05:06:22;101054.03;;;10.07;61.80
62800;BME280;48842;51.046;13.796;2023-04-19T05:08:47;101059.25;;;10.05;60.84
62800;BME280;48842;51.046;13.796;2023-04-19T05:11:12;101060.94;;;10.02;60.79
62800;BME280;48842;51.046;13.796;2023-04-19T05:13:38;101053.97;;;10.04;60.21
62800;BME280;48842;51.046;13.796;2023-04-19T05:16:03;101053.13;;;10.05;59.55
62800;BME280;48842;51.046;13.796;2023-04-19T05:18:28;101049.63;;;10.06;59.38
62800;BME280;48842;51.046;13.796;2023-04-19T05:20:55;101057.47;;;10.04;59.15
62800;BME280;48842;51.046;13.796;2023-04-19T05:23:21;101060.97;;;10.05;58.38
62800;BME280;48842;51.046;13.796;2023-04-19T05:25:46;101058.41;;;10.06;58.21
62800;BME280;48842;51.046;13.796;2023-04-19T05:28:11;101069.72;;;10.07;56.99
62800;BME280;48842;51.046;13.796;2023-04-19T05:30:37;101064.44;;;10.02;56.75
62800;BME280;48842;51.046;13.796;2023-04-19T05:33:03;101067.81;;;9.96;56.67
62800;BME280;48842;51.046;13.796;2023-04-19T05:35:28;101066.81;;;9.91;56.36
62800;BME280;48842;51.046;13.796;2023-04-19T05:37:53;101071.09;;;9.86;55.67
62800;BME280;48842;51.046;13.796;2023-04-19T05:40:18;101056.97;;;9.76;55.03
62800;BME280;48842;51.046;13.796;2023-04-19T05:42:44;101061.25;;;9.71;55.05
62800;BME280;48842;51.046;13.796;2023-04-19T05:45:09;101052.47;;;9.69;55.28
62800;BME280;48842;51.046;13.796;2023-04-19T05:47:35;101056.84;;;9.70;55.10
62800;BME280;48842;51.046;13.796;2023-04-19T05:50:02;101060.34;;;9.71;54.72
62800;BME280;48842;51.046;13.796;2023-04-19T05:52:28;101059.50;;;9.72;53.63
62800;BME280;48842;51.046;13.796;2023-04-19T05:54:53;101060.44;;;9.75;54.02
62800;BME280;48842;51.046;13.796;2023-04-19T05:57:18;101062.25;;;9.79;53.34
62800;BME280;48842;51.046;13.796;2023-04-19T05:59:44;101058.75;;;9.79;53.09
62800;BME280;48842;51.046;13.796;2023-04-19T06:02:09;101070.00;;;9.75;52.21
62800;BME280;48842;51.046;13.796;2023-04-19T06:04:34;101056.03;;;9.73;52.39
62800;BME280;48842;51.046;13.796;2023-04-19T06:07:00;101056.97;;;9.76;52.40
62800;BME280;48842;51.046;13.796;2023-04-19T06:09:25;101063.19;;;9.82;52.22
62800;BME280;48842;51.046;13.796;2023-04-19T06:11:50;101071.94;;;9.85;52.20
62800;BME280;48842;51.046;13.796;2023-04-19T06:14:18;101077.22;;;9.87;50.58
62800;BME280;48842;51.046;13.796;2023-04-19T06:16:43;101070.25;;;9.86;50.73
62800;BME280;48842;51.046;13.796;2023-04-19T06:19:09;101057.25;;;9.90;50.52
62800;BME280;48842;51.046;13.796;2023-04-19T06:21:34;101060.09;;;10.04;50.40
62800;BME280;48842;51.046;13.796;2023-04-19T06:23:59;101062.91;;;10.15;50.20
62800;BME280;48842;51.046;13.796;2023-04-19T06:26:25;101057.72;;;10.18;48.36
62800;BME280;48842;51.046;13.796;2023-04-19T06:28:50;101043.78;;;10.19;48.46
62800;BME280;48842;51.046;13.796;2023-04-19T06:31:16;101040.34;;;10.23;48.11
62800;BME280;48842;51.046;13.796;2023-04-19T06:33:41;101036.88;;;10.24;48.17
62800;BME280;48842;51.046;13.796;2023-04-19T06:36:06;101052.63;;;10.27;47.75
62800;BME280;48842;51.046;13.796;2023-04-19T06:38:32;101059.69;;;10.31;47.94
62800;BME280;48842;51.046;13.796;2023-04-19T06:40:57;101060.53;;;10.30;47.07
62800;BME280;48842;51.046;13.796;2023-04-19T06:43:23;101064.72;;;10.19;46.35
62800;BME280;48842;51.046;13.796;2023-04-19T06:45:48;101062.91;;;10.15;45.55
62800;BME280;48842;51.046;13.796;2023-04-19T06:48:13;101059.38;;;10.14;45.71
62800;BME280;48842;51.046;13.796;2023-04-19T06:50:38;101056.91;;;10.21;45.46
62800;BME280;48842;51.046;13.796;2023-04-19T06:53:04;101057.72;;;10.18;45.91
62800;BME280;48842;51.046;13.796;2023-04-19T06:55:29;101052.50;;;10.20;45.88
62800;BME280;48842;51.046;13.796;2023-04-19T06:57:55;101043.84;;;10.24;45.98
62800;BME280;48842;51.046;13.796;2023-04-19T07:00:21;101048.31;;;10.28;46.27
62800;BME280;48842;51.046;13.796;2023-04-19T07:02:48;101046.63;;;10.33;46.07
62800;BME280;48842;51.046;13.796;2023-04-19T07:05:13;101026.66;;;10.37;46.04
62800;BME280;48842;51.046;13.796;2023-04-19T07:07:39;101023.19;;;10.41;46.06
62800;BME280;48842;51.046;13.796;2023-04-19T07:10:06;101016.25;;;10.43;45.12
62800;BME280;48842;51.046;13.796;2023-04-19T07:12:32;101019.78;;;10.46;45.07
62800;BME280;48842;51.046;13.796;2023-04-19T07:14:57;101019.00;;;10.52;45.38
62800;BME280;48842;51.046;13.796;2023-04-19T07:17:22;101021.72;;;10.58;45.10
62800;BME280;48842;51.046;13.796;2023-04-19T07:19:48;101016.44;;;10.55;43.39
62800;BME280;48842;51.046;13.796;2023-04-19T07:22:13;101018.06;;;10.47;43.63
62800;BME280;48842;51.046;13.796;2023-04-19T07:24:38;101018.88;;;10.41;43.11
62800;BME280;48842;51.046;13.796;2023-04-19T07:27:05;101011.75;;;10.34;43.03
62800;BME280;48842;51.046;13.796;2023-04-19T07:29:33;100996.78;;;10.27;42.66
62800;BME280;48842;51.046;13.796;2023-04-19T07:31:58;101008.06;;;10.24;42.48
62800;BME280;48842;51.046;13.796;2023-04-19T07:34:25;101005.50;;;10.27;43.19
62800;BME280;48842;51.046;13.796;2023-04-19T07:36:51;101004.69;;;10.30;43.23
62800;BME280;48842;51.046;13.796;2023-04-19T07:39:16;100989.84;;;10.30;43.30
62800;BME280;48842;51.046;13.796;2023-04-19T07:41:41;100999.47;;;10.31;43.58
62800;BME280;48842;51.046;13.796;2023-04-19T07:44:06;100997.72;;;10.32;42.83
62800;BME280;48842;51.046;13.796;2023-04-19T07:46:31;101001.22;;;10.31;43.48
62800;BME280;48842;51.046;13.796;2023-04-19T07:48:57;100992.44;;;10.30;43.38
62800;BME280;48842;51.046;13.796;2023-04-19T07:51:22;100990.72;;;10.29;43.34
62800;BME280;48842;51.046;13.796;2023-04-19T07:53:48;100993.38;;;10.33;43.65
62800;BME280;48842;51.046;13.796;2023-04-19T07:56:14;100993.50;;;10.39;44.23
62800;BME280;48842;51.046;13.796;2023-04-19T07:58:39;100990.97;;;10.46;43.79
62800;BME280;48842;51.046;13.796;2023-04-19T08:01:05;100998.81;;;10.43;42.48
62800;BME280;48842;51.046;13.796;2023-04-19T08:03:32;100995.34;;;10.46;43.51
62800;BME280;48842;51.046;13.796;2023-04-19T08:05:59;100985.78;;;10.48;43.39
62800;BME280;48842;51.046;13.796;2023-04-19T08:08:26;100979.72;;;10.52;43.34
62800;BME280;48842;51.046;13.796;2023-04-19T08:10:52;100981.53;;;10.56;43.58
62800;BME280;48842;51.046;13.796;2023-04-19T08:13:19;100978.13;;;10.62;43.52
62800;BME280;48842;51.046;13.796;2023-04-19T08:15:44;100979.00;;;10.62;43.50
62800;BME280;48842;51.046;13.796;2023-04-19T08:18:09;100971.16;;;10.64;43.49
62800;BME280;48842;51.046;13.796;2023-04-19T08:20:35;100979.91;;;10.64;43.53
62800;BME280;48842;51.046;13.796;2023-04-19T08:23:00;100980.72;;;10.60;43.52
62800;BME280;48842;51.046;13.796;2023-04-19T08:25:26;100978.22;;;10.70;43.98
62800;BME280;48842;51.046;13.796;2023-04-19T08:27:53;100980.91;;;10.74;44.11
62800;BME280;48842;51.046;13.796;2023-04-19T08:30:18;100976.59;;;10.78;43.55
62800;BME280;48842;51.046;13.796;2023-04-19T08:32:43;100965.25;;;10.80;43.88
62800;BME280;48842;51.046;13.796;2023-04-19T08:35:09;100967.97;;;10.85;43.16
62800;BME280;48842;51.046;13.796;2023-04-19T08:37:34;100969.69;;;10.85;43.51
62800;BME280;48842;51.046;13.796;2023-04-19T08:39:59;100973.16;;;10.82;43.76
62800;BME280;48842;51.046;13.796;2023-04-19T08:42:25;100960.06;;;10.83;44.00
62800;BME280;48842;51.046;13.796;2023-04-19T08:44:51;100971.44;;;10.84;44.38
62800;BME280;48842;51.046;13.796;2023-04-19T08:47:17;100959.22;;;10.86;44.39
62800;BME280;48842;51.046;13.796;2023-04-19T08:49:44;100961.88;;;10.89;44.65
62800;BME280;48842;51.046;13.796;2023-04-19T08:52:11;100959.25;;;10.89;43.88
62800;BME280;48842;51.046;13.796;2023-04-19T08:54:37;100952.31;;;10.91;44.29
62800;BME280;48842;51.046;13.796;2023-04-19T08:57:03;100953.22;;;10.96;44.97
62800;BME280;48842;51.046;13.796;2023-04-19T08:59:29;100947.19;;;11.04;44.77
62800;BME280;48842;51.046;13.796;2023-04-19T09:02:00;100949.00;;;11.08;45.22
62800;BME280;48842;51.046;13.796;2023-04-19T09:04:25;100942.94;;;11.13;45.11
62800;BME280;48842;51.046;13.796;2023-04-19T09:06:51;100939.53;;;11.19;45.35
62800;BME280;48842;51.046;13.796;2023-04-19T09:09:22;100935.19;;;11.24;45.03
62800;BME280;48842;51.046;13.796;2023-04-19T09:11:47;100920.41;;;11.31;45.39
62800;BME280;48842;51.046;13.796;2023-04-19T09:14:14;100924.88;;;11.40;45.13
62800;BME280;48842;51.046;13.796;2023-04-19T09:16:41;100925.72;;;11.39;45.16
62800;BME280;48842;51.046;13.796;2023-04-19T09:19:06;100928.28;;;11.32;45.22
62800;BME280;48842;51.046;13.796;2023-04-19T09:21:37;100922.16;;;11.29;45.32
62800;BME280;48842;51.046;13.796;2023-04-19T09:24:03;100925.72;;;11.37;45.16
62800;BME280;48842;51.046;13.796;2023-04-19T09:26:28;100921.38;;;11.38;45.37
62800;BME280;48842;51.046;13.796;2023-04-19T09:29:03;100917.84;;;11.39;45.39
62800;BME280;48842;51.046;13.796;2023-04-19T09:31:30;100909.28;;;11.55;45.05
62800;BME280;48842;51.046;13.796;2023-04-19T09:33:56;100904.19;;;11.74;45.38
62800;BME280;48842;51.046;13.796;2023-04-19T09:36:31;100901.66;;;11.83;44.71
62800;BME280;48842;51.046;13.796;2023-04-19T09:38:58;100903.41;;;11.87;44.83
62800;BME280;48842;51.046;13.796;2023-04-19T09:41:26;100907.81;;;11.91;44.59
62800;BME280;48842;51.046;13.796;2023-04-19T09:43:52;100901.78;;;11.95;45.13
62800;BME280;48842;51.046;13.796;2023-04-19T09:46:34;100904.41;;;11.97;44.89
62800;BME280;48842;51.046;13.796;2023-04-19T09:51:44;100887.81;;;12.02;43.79
62800;BME280;48842;51.046;13.796;2023-04-19T09:54:11;100894.88;;;12.11;44.76
62800;BME280;48842;51.046;13.796;2023-04-19T09:56:37;100880.09;;;12.24;44.24
62800;BME280;48842;51.046;13.796;2023-04-19T09:59:03;100888.00;;;12.35;44.54
62800;BME280;48842;51.046;13.796;2023-04-19T10:01:55;100881.94;;;12.44;44.03
62800;BME280;48842;51.046;13.796;2023-04-19T10:04:22;100875.91;;;12.60;44.57
62800;BME280;48842;51.046;13.796;2023-04-19T10:06:50;100880.34;;;12.77;44.12
62800;BME280;48842;51.046;13.796;2023-04-19T10:09:17;100880.34;;;12.80;43.08
62800;BME280;48842;51.046;13.796;2023-04-19T10:11:48;100869.81;;;12.72;43.01
62800;BME280;48842;51.046;13.796;2023-04-19T10:14:14;100869.75;;;12.64;43.05
62800;BME280;48842;51.046;13.796;2023-04-19T10:16:40;100875.91;;;12.60;43.15
62800;BME280;48842;51.046;13.796;2023-04-19T10:19:08;100869.72;;;12.58;43.08
62800;BME280;48842;51.046;13.796;2023-04-19T10:21:35;100875.84;;;12.57;42.76
62800;BME280;48842;51.046;13.796;2023-04-19T10:24:00;100859.25;;;12.67;43.33
62800;BME280;48842;51.046;13.796;2023-04-19T10:26:26;100867.22;;;12.86;43.58
62800;BME280;48842;51.046;13.796;2023-04-19T10:28:54;100864.66;;;13.07;42.50
62800;BME280;48842;51.046;13.796;2023-04-19T10:31:20;100867.31;;;13.24;41.23
62800;BME280;48842;51.046;13.796;2023-04-19T10:33:48;100862.91;;;13.28;40.38
62800;BME280;48842;51.046;13.796;2023-04-19T10:36:14;100866.41;;;13.25;40.56
62800;BME280;48842;51.046;13.796;2023-04-19T10:41:09;100860.31;;;13.34;40.74
62800;BME280;48842;51.046;13.796;2023-04-19T10:43:40;100866.47;;;13.46;40.79
62800;BME280;48842;51.046;13.796;2023-04-19T10:46:08;100863.84;;;13.50;40.68
62800;BME280;48842;51.046;13.796;2023-04-19T10:48:35;100855.09;;;13.43;40.63
62800;BME280;48842;51.046;13.796;2023-04-19T10:51:16;100859.41;;;13.32;40.92
62800;BME280;48842;51.046;13.796;2023-04-19T10:53:59;100863.78;;;13.28;40.76
62800;BME280;48842;51.046;13.796;2023-04-19T11:01:42;100841.94;;;13.43;39.88
62800;BME280;48842;51.046;13.796;2023-04-19T11:04:11;100841.94;;;13.43;39.84
62800;BME280;48842;51.046;13.796;2023-04-19T11:06:56;100839.28;;;13.45;40.51
62800;BME280;48842;51.046;13.796;2023-04-19T11:09:24;100832.25;;;13.47;40.37
62800;BME280;48842;51.046;13.796;2023-04-19T11:11:52;100831.38;;;13.53;40.65
62800;BME280;48842;51.046;13.796;2023-04-19T11:14:19;100818.22;;;13.59;40.60
62800;BME280;48842;51.046;13.796;2023-04-19T11:16:44;100825.25;;;13.65;40.44
62800;BME280;48842;51.046;13.796;2023-04-19T11:19:16;100825.22;;;13.71;40.28
62800;BME280;48842;51.046;13.796;2023-04-19T11:21:44;100816.47;;;13.72;40.07
62800;BME280;48842;51.046;13.796;2023-04-19T11:24:10;100820.84;;;13.74;39.66
62800;BME280;48842;51.046;13.796;2023-04-19T11:26:35;100814.72;;;13.77;39.13
62800;BME280;48842;51.046;13.796;2023-04-19T11:29:01;100810.28;;;13.84;39.62
62800;BME280;48842;51.046;13.796;2023-04-19T11:31:27;100807.63;;;13.93;39.03
62800;BME280;48842;51.046;13.796;2023-04-19T11:33:52;100799.72;;;13.99;38.41
62800;BME280;48842;51.046;13.796;2023-04-19T11:36:17;100796.22;;;13.94;37.92
62800;BME280;48842;51.046;13.796;2023-04-19T11:38:49;100801.53;;;13.82;37.61
62800;BME280;48842;51.046;13.796;2023-04-19T11:41:14;100806.78;;;13.69;38.19
62800;BME280;48842;51.046;13.796;2023-04-19T11:43:40;100807.69;;;13.57;38.58
62800;BME280;48842;51.046;13.796;2023-04-19T11:46:09;100806.81;;;13.48;38.78
62800;BME280;48842;51.046;13.796;2023-04-19T11:48:34;100809.44;;;13.40;39.12
62800;BME280;48842;51.046;13.796;2023-04-19T11:51:00;100813.78;;;13.30;39.37
62800;BME280;48842;51.046;13.796;2023-04-19T11:53:28;100812.03;;;13.20;39.28
62800;BME280;48842;51.046;13.796;2023-04-19T11:55:55;100802.41;;;13.14;39.61
62800;BME280;48842;51.046;13.796;2023-04-19T11:58:43;100805.88;;;13.04;39.79
62800;BME280;48842;51.046;13.796;2023-04-19T12:01:12;100809.41;;;12.97;40.19
62800;BME280;48842;51.046;13.796;2023-04-19T12:03:47;100798.00;;;12.99;40.06
62800;BME280;48842;51.046;13.796;2023-04-19T12:06:20;100805.91;;;13.08;40.21
62800;BME280;48842;51.046;13.796;2023-04-19T12:08:47;100806.78;;;13.21;40.27
62800;BME280;48842;51.046;13.796;2023-04-19T12:11:14;100807.69;;;13.34;39.81
62800;BME280;48842;51.046;13.796;2023-04-19T12:13:39;100806.84;;;13.51;39.41
62800;BME280;48842;51.046;13.796;2023-04-19T12:16:06;100792.75;;;13.70;39.41
62800;BME280;48842;51.046;13.796;2023-04-19T12:18:42;100788.34;;;13.85;38.49
62800;BME280;48842;51.046;13.796;2023-04-19T12:21:10;100796.22;;;13.91;38.30
62800;BME280;48842;51.046;13.796;2023-04-19T12:23:36;100792.72;;;13.93;38.30
62800;BME280;48842;51.046;13.796;2023-04-19T12:26:03;100790.06;;;14.00;38.82
62800;BME280;48842;51.046;13.796;2023-04-19T12:28:29;100791.81;;;14.02;38.52
62800;BME280;48842;51.046;13.796;2023-04-19T12:30:55;100785.66;;;14.00;38.61
62800;BME280;48842;51.046;13.796;2023-04-19T12:33:20;100790.94;;;13.97;38.67
62800;BME280;48842;51.046;13.796;2023-04-19T12:35:45;100791.84;;;13.87;39.12
62800;BME280;48842;51.046;13.796;2023-04-19T12:38:10;100779.56;;;13.83;39.24
62800;BME280;48842;51.046;13.796;2023-04-19T12:40:35;100790.09;;;13.92;39.42
62800;BME280;48842;51.046;13.796;2023-04-19T12:43:01;100776.00;;;14.04;39.04
62800;BME280;48842;51.046;13.796;2023-04-19T12:45:26;100775.09;;;14.16;38.93